Terminal Aerodrome Forecast
Issued by NWS Sioux Falls, SD

Home | Current Version | Previous Version | Text Only | Print | Product List | Glossary Off
Versions: 1 2 3 4 5 6 7 8 9 10 11 12 13 14 15 16 17 18

000
FTUS43 KFSD 211138
TAFFSD
TAF
KFSD 211138Z 2112/2212 18005KT P6SM SKC WS012/22035KT
     FM211500 20010KT P6SM FEW250
     FM211930 24013KT P6SM FEW250
     FM220100 24007KT P6SM FEW250=

USA.gov is the U.S. government's official web portal to all federal, state and local government web resources and services.